Time;durP1;ratioP1;P1;durP2;ratioP2;P2;SDS_P1;SDS_P2;PMS_P1;PMS_P2;Temp;Humidity;BMP_temperature;BMP_pressure;BME280_temperature;BME280_humidity;BME280_pressure;Samples;Min_cycle;Max_cycle;Signal;HPM_P1;HPM_P2
2023/12/31 00:01:48;;;;;;;5.70;2.78;;;9.20;64.10;;;;;;2277976;56;21430;-67
2023/12/31 00:04:15;;;;;;;6.30;2.70;;;9.10;64.00;;;;;;2278015;56;20964;-68
2023/12/31 00:06:41;;;;;;;4.80;2.35;;;9.00;64.00;;;;;;2267015;56;21014;-66
2023/12/31 00:09:07;;;;;;;4.68;2.65;;;9.00;64.00;;;;;;2284798;56;21399;-68
2023/12/31 00:11:34;;;;;;;4.95;2.35;;;9.00;64.10;;;;;;2280692;55;21906;-67
2023/12/31 00:14:00;;;;;;;4.62;2.25;;;8.90;64.10;;;;;;2510461;55;21048;-67
2023/12/31 00:16:27;;;;;;;4.75;2.28;;;8.90;64.20;;;;;;2255010;57;20959;-67
2023/12/31 00:18:53;;;;;;;5.07;2.60;;;8.80;64.20;;;;;;2269721;55;21480;-68
2023/12/31 00:21:20;;;;;;;4.78;2.45;;;8.80;64.20;;;;;;2489940;55;21483;-68
2023/12/31 00:23:46;;;;;;;4.65;2.37;;;8.70;64.20;;;;;;2256382;55;21022;-67
2023/12/31 00:26:12;;;;;;;5.95;2.35;;;8.70;64.20;;;;;;2256575;55;20974;-67
2023/12/31 00:28:41;;;;;;;3.83;1.90;;;8.70;64.30;;;;;;2256592;55;20995;-67
2023/12/31 00:31:09;;;;;;;3.97;1.95;;;8.60;64.30;;;;;;2256474;55;21887;-67
2023/12/31 00:33:35;;;;;;;3.70;2.05;;;8.60;64.30;;;;;;2489830;54;21814;-67
2023/12/31 00:36:02;;;;;;;4.45;2.03;;;8.50;64.20;;;;;;2256004;55;20987;-68
2023/12/31 00:38:28;;;;;;;5.47;2.20;;;8.50;64.30;;;;;;2489745;55;21436;-67
2023/12/31 00:40:54;;;;;;;6.80;3.00;;;8.50;64.40;;;;;;2265705;55;20954;-66
2023/12/31 00:43:21;;;;;;;8.20;3.65;;;8.50;64.50;;;;;;2483644;55;21111;-67
2023/12/31 00:45:48;;;;;;;8.10;4.05;;;8.40;64.50;;;;;;2258416;55;21480;-67
2023/12/31 00:48:16;;;;;;;8.45;3.60;;;8.40;64.60;;;;;;2255718;55;21107;-67
2023/12/31 00:50:43;;;;;;;7.28;3.58;;;8.40;64.70;;;;;;2256446;55;20962;-68
2023/12/31 00:53:09;;;;;;;6.65;3.33;;;8.40;64.80;;;;;;2261428;56;21003;-68
2023/12/31 00:55:38;;;;;;;6.72;3.47;;;8.40;64.90;;;;;;2255846;55;20970;-67
2023/12/31 00:58:07;;;;;;;5.50;2.92;;;8.30;64.90;;;;;;2261488;56;21668;-66
2023/12/31 01:00:35;;;;;;;6.85;3.20;;;8.30;64.90;;;;;;2483145;55;21082;-67
2023/12/31 01:03:01;;;;;;;6.25;3.33;;;8.30;64.90;;;;;;2255852;55;21011;-66
2023/12/31 01:05:29;;;;;;;5.78;3.10;;;8.30;64.90;;;;;;2483817;55;20978;-67
2023/12/31 01:08:01;;;;;;;5.47;2.80;;;8.30;64.90;;;;;;2486940;55;21040;-67
2023/12/31 01:10:27;;;;;;;8.27;3.65;;;8.30;64.90;;;;;;2269030;55;21911;-67
2023/12/31 01:12:54;;;;;;;8.10;4.15;;;8.30;64.90;;;;;;2261408;56;20991;-66
2023/12/31 01:15:22;;;;;;;11.93;5.90;;;8.30;65.00;;;;;;2260839;56;21042;-68
2023/12/31 01:17:48;;;;;;;9.32;5.78;;;8.30;65.10;;;;;;2483860;55;20954;-67
2023/12/31 01:20:16;;;;;;;12.10;7.07;;;8.20;65.00;;;;;;2261032;55;20976;-67
2023/12/31 01:22:42;;;;;;;16.20;8.10;;;8.20;64.90;;;;;;2483257;55;21034;-66
2023/12/31 01:25:09;;;;;;;13.07;7.35;;;8.20;64.90;;;;;;2482122;55;20962;-67
2023/12/31 01:27:37;;;;;;;12.43;6.55;;;8.20;64.90;;;;;;2251502;55;20985;-68
2023/12/31 01:30:06;;;;;;;13.43;6.97;;;8.20;64.80;;;;;;2481908;55;21018;-68
2023/12/31 01:32:32;;;;;;;12.50;5.97;;;8.20;64.90;;;;;;2260342;55;20971;-67
2023/12/31 01:34:59;;;;;;;10.82;5.70;;;8.20;64.90;;;;;;2492714;54;20927;-67
2023/12/31 01:37:26;;;;;;;8.02;4.47;;;8.10;64.80;;;;;;2483632;55;21067;-67
2023/12/31 01:39:53;;;;;;;9.50;4.20;;;8.10;64.90;;;;;;2244799;55;20958;-66
2023/12/31 01:42:20;;;;;;;8.32;3.62;;;8.10;65.00;;;;;;2256507;56;21070;-67
2023/12/31 01:44:47;;;;;;;6.57;3.12;;;8.10;65.00;;;;;;2484058;55;20950;-67
2023/12/31 01:47:15;;;;;;;5.85;2.30;;;8.10;65.10;;;;;;2482195;55;21416;-67
2023/12/31 01:49:41;;;;;;;4.15;2.50;;;8.10;65.10;;;;;;2489479;55;21335;-67
2023/12/31 01:52:07;;;;;;;4.90;2.67;;;8.00;65.10;;;;;;2258793;55;20970;-66
2023/12/31 01:54:33;;;;;;;4.95;2.12;;;8.00;65.20;;;;;;2483338;55;21011;-67
2023/12/31 01:57:00;;;;;;;5.47;2.67;;;8.10;65.40;;;;;;2483619;54;21483;-67
2023/12/31 01:59:28;;;;;;;4.85;2.62;;;8.00;65.50;;;;;;2508507;55;21079;-67
2023/12/31 02:01:55;;;;;;;7.07;3.45;;;8.00;65.60;;;;;;2281256;55;20932;-67
2023/12/31 02:04:21;;;;;;;6.72;3.05;;;8.10;65.70;;;;;;2513555;54;20998;-67
2023/12/31 02:06:48;;;;;;;5.95;2.97;;;8.10;65.90;;;;;;2281544;55;20956;-67
2023/12/31 02:09:15;;;;;;;4.72;2.37;;;8.10;66.00;;;;;;2514636;55;20973;-67
2023/12/31 02:11:41;;;;;;;4.20;2.08;;;8.10;66.00;;;;;;2280841;56;21327;-67
2023/12/31 02:14:08;;;;;;;4.65;2.30;;;8.10;66.10;;;;;;2281897;56;20939;-67
2023/12/31 02:16:35;;;;;;;3.58;2.08;;;8.10;66.20;;;;;;2513928;54;21139;-67
2023/12/31 02:19:01;;;;;;;4.12;1.87;;;8.20;66.40;;;;;;2281694;56;21035;-67
2023/12/31 02:21:27;;;;;;;4.47;1.80;;;8.20;66.40;;;;;;2488851;54;20947;-68
2023/12/31 02:23:54;;;;;;;3.70;1.83;;;8.30;66.50;;;;;;2269472;55;20970;-67
2023/12/31 02:26:20;;;;;;;3.90;1.85;;;8.30;66.50;;;;;;2488694;55;20980;-67
2023/12/31 02:28:46;;;;;;;3.95;1.98;;;8.30;66.40;;;;;;2263520;56;21000;-67
2023/12/31 02:31:13;;;;;;;3.53;1.73;;;8.30;66.40;;;;;;2518961;54;21007;-67
2023/12/31 02:33:39;;;;;;;4.12;2.00;;;8.40;66.50;;;;;;2531017;54;21004;-68
2023/12/31 02:36:05;;;;;;;3.60;1.70;;;8.40;66.60;;;;;;2531655;54;20952;-67
2023/12/31 02:38:32;;;;;;;5.07;2.08;;;8.40;66.60;;;;;;2530816;54;21766;-67
2023/12/31 02:40:59;;;;;;;5.18;1.77;;;8.50;66.60;;;;;;2483813;54;20963;-68
2023/12/31 02:43:25;;;;;;;4.32;1.75;;;8.50;66.60;;;;;;2255835;55;21488;-66
2023/12/31 02:45:51;;;;;;;3.33;1.62;;;8.50;66.60;;;;;;2485931;54;20975;-67
2023/12/31 02:48:17;;;;;;;5.00;2.08;;;8.60;66.70;;;;;;2265331;55;21974;-67
2023/12/31 02:50:44;;;;;;;4.87;2.12;;;8.60;66.70;;;;;;2267767;56;20967;-67
2023/12/31 02:53:10;;;;;;;3.40;1.58;;;8.60;66.60;;;;;;2268867;55;20993;-67
2023/12/31 02:55:36;;;;;;;3.58;1.70;;;8.70;66.70;;;;;;2285419;57;21489;-67
2023/12/31 02:58:03;;;;;;;5.25;2.33;;;8.70;66.60;;;;;;2520963;54;20909;-68
2023/12/31 03:00:29;;;;;;;2.80;1.48;;;8.70;66.60;;;;;;2519472;54;20961;-67
2023/12/31 03:02:56;;;;;;;3.72;1.60;;;8.70;66.50;;;;;;2502922;54;20922;-67
2023/12/31 03:05:22;;;;;;;2.78;1.27;;;8.70;66.50;;;;;;2519980;54;21031;-68
2023/12/31 03:07:48;;;;;;;3.90;1.92;;;8.80;66.60;;;;;;2286071;57;21852;-67
2023/12/31 03:10:19;;;;;;;3.60;1.58;;;8.80;66.60;;;;;;2275359;55;21429;-67
2023/12/31 03:12:45;;;;;;;3.97;1.75;;;8.80;66.50;;;;;;2520773;54;22232;-67
2023/12/31 03:15:15;;;;;;;3.90;1.90;;;8.80;66.50;;;;;;2285998;57;21014;-67
2023/12/31 03:17:41;;;;;;;4.43;1.90;;;8.80;66.50;;;;;;2287882;55;20937;-67
2023/12/31 03:20:08;;;;;;;4.40;1.85;;;8.90;66.50;;;;;;2272902;55;20914;-67
2023/12/31 03:22:34;;;;;;;4.07;2.00;;;8.90;66.40;;;;;;2286158;55;20913;-67
2023/12/31 03:25:04;;;;;;;4.32;1.87;;;8.90;66.40;;;;;;2520509;54;20965;-67
2023/12/31 03:27:30;;;;;;;3.97;1.85;;;8.90;66.40;;;;;;2286177;55;21142;-67
2023/12/31 03:29:58;;;;;;;3.65;1.92;;;8.90;66.40;;;;;;2286631;55;20926;-67
2023/12/31 03:32:24;;;;;;;3.03;1.48;;;8.90;66.40;;;;;;2285418;55;20953;-67
2023/12/31 03:34:50;;;;;;;2.78;1.45;;;8.90;66.40;;;;;;2283799;55;20963;-68
2023/12/31 03:37:17;;;;;;;3.47;1.92;;;8.90;66.40;;;;;;2509824;54;20921;-67
2023/12/31 03:39:43;;;;;;;4.47;2.00;;;8.90;66.50;;;;;;2285478;57;20962;-68
2023/12/31 03:42:09;;;;;;;3.05;1.67;;;8.90;66.50;;;;;;2285481;55;20999;-67
2023/12/31 03:44:38;;;;;;;3.53;1.67;;;8.90;66.60;;;;;;2507770;54;20990;-67
2023/12/31 03:47:04;;;;;;;3.22;1.40;;;8.90;66.60;;;;;;2286467;55;21594;-67
2023/12/31 03:49:31;;;;;;;4.68;1.45;;;8.90;66.60;;;;;;2285958;56;20974;-67
2023/12/31 03:51:57;;;;;;;3.58;1.75;;;8.90;66.60;;;;;;2286603;57;20882;-67
2023/12/31 03:54:23;;;;;;;3.75;1.80;;;8.90;66.50;;;;;;2520302;54;21454;-67
2023/12/31 03:56:50;;;;;;;4.12;1.65;;;9.00;66.60;;;;;;2286019;57;20952;-67
2023/12/31 03:59:16;;;;;;;3.55;1.73;;;8.90;66.50;;;;;;2520795;55;21388;-67
2023/12/31 04:01:44;;;;;;;4.15;1.62;;;9.00;66.60;;;;;;2284428;55;20995;-68
2023/12/31 04:04:12;;;;;;;4.18;2.00;;;8.90;66.60;;;;;;2519737;54;20986;-67
2023/12/31 04:06:43;;;;;;;3.20;1.50;;;9.00;66.60;;;;;;2285504;57;22010;-67
2023/12/31 04:09:11;;;;;;;3.37;1.55;;;9.00;66.50;;;;;;2286358;55;20993;-67
2023/12/31 04:11:37;;;;;;;3.12;1.60;;;9.00;66.40;;;;;;2285806;57;21406;-66
2023/12/31 04:14:03;;;;;;;3.37;1.60;;;9.00;66.40;;;;;;2275570;55;20966;-67
2023/12/31 04:16:30;;;;;;;3.55;1.73;;;9.00;66.30;;;;;;2519340;54;20930;-66
2023/12/31 04:18:56;;;;;;;3.50;1.50;;;9.00;66.30;;;;;;2286240;57;21965;-67
2023/12/31 04:21:22;;;;;;;5.55;2.47;;;9.00;66.30;;;;;;2285657;55;20930;-67
2023/12/31 04:23:51;;;;;;;6.12;3.22;;;9.00;66.30;;;;;;2286307;55;21337;-68
2023/12/31 04:26:18;;;;;;;6.30;3.37;;;9.00;66.30;;;;;;2286462;55;20910;-67
2023/12/31 04:28:44;;;;;;;6.90;3.37;;;9.00;66.20;;;;;;2527355;54;21583;-67
2023/12/31 04:31:11;;;;;;;9.27;3.72;;;9.00;66.30;;;;;;2288093;55;20918;-67
2023/12/31 04:33:38;;;;;;;7.90;3.78;;;9.00;66.20;;;;;;2286158;55;21534;-68
2023/12/31 04:36:05;;;;;;;8.02;3.30;;;8.90;66.10;;;;;;2520768;54;20977;-67
2023/12/31 04:38:33;;;;;;;6.62;2.85;;;8.90;66.10;;;;;;2519918;55;20929;-67
2023/12/31 04:40:59;;;;;;;6.82;3.12;;;8.90;66.00;;;;;;2286447;55;20903;-67
2023/12/31 04:43:25;;;;;;;6.32;2.67;;;8.90;66.00;;;;;;2286798;55;21014;-67
2023/12/31 04:45:52;;;;;;;6.65;2.62;;;8.90;66.00;;;;;;2273691;55;21021;-67
2023/12/31 04:48:18;;;;;;;4.95;2.12;;;8.90;66.10;;;;;;2286460;55;21209;-67
2023/12/31 04:50:45;;;;;;;5.07;2.20;;;8.90;66.10;;;;;;2286796;56;20978;-68
2023/12/31 04:53:11;;;;;;;5.32;2.00;;;8.90;66.10;;;;;;2286773;56;20997;-67
2023/12/31 04:55:38;;;;;;;3.70;1.80;;;8.90;66.20;;;;;;2519947;54;20954;-68
2023/12/31 04:58:04;;;;;;;3.05;1.67;;;8.90;66.20;;;;;;2503095;54;20886;-68
2023/12/31 05:00:31;;;;;;;4.35;1.80;;;8.90;66.20;;;;;;2520238;54;20994;-68
2023/12/31 05:02:58;;;;;;;3.62;1.30;;;8.80;66.10;;;;;;2518775;54;20942;-67
2023/12/31 05:05:26;;;;;;;4.22;2.03;;;8.80;66.80;;;;;;2503991;54;21014;-67
2023/12/31 05:07:52;;;;;;;3.47;1.20;;;8.80;66.10;;;;;;2510292;54;20963;-68
2023/12/31 05:10:18;;;;;;;2.50;1.05;;;8.80;66.20;;;;;;2272255;55;21013;-67
2023/12/31 05:12:48;;;;;;;2.55;1.17;;;8.80;66.20;;;;;;2281718;55;20961;-67
2023/12/31 05:15:18;;;;;;;2.83;1.33;;;8.80;66.20;;;;;;2294572;55;21024;-67
2023/12/31 05:17:44;;;;;;;4.55;1.65;;;8.80;66.30;;;;;;2520328;54;21828;-67
2023/12/31 05:20:12;;;;;;;3.65;1.02;;;8.80;66.30;;;;;;2519982;54;21009;-67
2023/12/31 05:22:39;;;;;;;2.58;1.17;;;8.80;66.30;;;;;;2490758;55;20972;-68
2023/12/31 05:25:06;;;;;;;1.90;0.90;;;8.80;66.30;;;;;;2481680;54;21847;-68
2023/12/31 05:27:32;;;;;;;1.92;1.00;;;8.80;66.40;;;;;;2263024;55;21016;-67
2023/12/31 05:29:58;;;;;;;2.20;0.80;;;8.80;66.40;;;;;;2295466;56;21012;-67
2023/12/31 05:32:25;;;;;;;2.17;1.00;;;8.80;66.50;;;;;;2294704;56;20987;-67
2023/12/31 05:34:51;;;;;;;2.55;1.10;;;8.90;66.60;;;;;;2295292;56;20932;-67
2023/12/31 05:37:17;;;;;;;2.60;1.10;;;8.80;66.60;;;;;;2531412;54;20960;-68
2023/12/31 05:39:45;;;;;;;3.55;1.05;;;8.90;66.70;;;;;;2526272;54;22241;-68
2023/12/31 05:42:13;;;;;;;2.37;1.00;;;8.90;66.70;;;;;;2287716;55;20960;-67
2023/12/31 05:44:42;;;;;;;2.87;1.00;;;8.90;66.80;;;;;;2286702;56;21270;-68
2023/12/31 05:47:09;;;;;;;3.00;0.90;;;8.90;66.80;;;;;;2291223;56;20984;-67
2023/12/31 05:49:35;;;;;;;2.25;1.00;;;8.90;66.80;;;;;;2283439;55;22092;-67
2023/12/31 05:52:14;;;;;;;2.87;1.15;;;9.00;67.00;;;;;;2295201;56;20955;-67
2023/12/31 05:54:40;;;;;;;3.10;1.15;;;9.00;66.90;;;;;;2261032;56;20971;-67
2023/12/31 05:57:06;;;;;;;2.45;1.10;;;9.00;67.00;;;;;;2255197;57;20908;-67
2023/12/31 05:59:33;;;;;;;3.33;1.40;;;9.00;67.00;;;;;;2255744;56;20950;-67
2023/12/31 06:02:00;;;;;;;2.40;1.20;;;9.00;67.00;;;;;;2255796;55;20958;-68
2023/12/31 06:04:26;;;;;;;2.42;1.10;;;9.00;67.00;;;;;;2483187;55;20975;-68
2023/12/31 06:06:55;;;;;;;3.58;1.40;;;9.10;67.10;;;;;;2263284;55;20951;-68
2023/12/31 06:09:22;;;;;;;3.60;1.70;;;9.10;67.10;;;;;;2266644;55;21011;-68
2023/12/31 06:11:49;;;;;;;4.75;1.85;;;9.10;67.20;;;;;;2484047;55;20979;-67
2023/12/31 06:14:16;;;;;;;3.47;2.00;;;9.10;67.30;;;;;;2265677;56;20971;-67
2023/12/31 06:16:42;;;;;;;6.07;2.50;;;9.10;67.40;;;;;;2453774;55;20978;-68
2023/12/31 06:19:08;;;;;;;7.87;3.17;;;9.20;67.60;;;;;;2492009;55;21492;-67
2023/12/31 06:21:35;;;;;;;7.10;3.53;;;9.20;67.70;;;;;;2261588;56;21033;-68
2023/12/31 06:24:01;;;;;;;6.55;3.45;;;9.20;67.70;;;;;;2259247;55;21019;-67
2023/12/31 06:26:28;;;;;;;5.40;3.05;;;9.30;67.80;;;;;;2495822;55;21046;-68
2023/12/31 06:28:54;;;;;;;6.60;3.50;;;9.40;68.00;;;;;;2262026;56;21963;-67
2023/12/31 06:31:21;;;;;;;4.35;2.65;;;9.40;68.00;;;;;;2494166;55;21547;-67
2023/12/31 06:33:48;;;;;;;5.07;2.35;;;9.50;68.00;;;;;;2260764;56;21451;-68
2023/12/31 06:36:17;;;;;;;4.25;1.98;;;9.50;68.00;;;;;;2260829;55;21039;-67
2023/12/31 06:38:44;;;;;;;4.20;1.90;;;9.50;68.00;;;;;;2260919;55;21030;-68
2023/12/31 06:41:10;;;;;;;3.60;1.87;;;9.60;68.10;;;;;;2489153;55;21081;-69
2023/12/31 06:43:37;;;;;;;2.78;1.10;;;9.70;68.20;;;;;;2260658;56;20968;-68
2023/12/31 06:46:04;;;;;;;2.70;1.30;;;9.70;68.20;;;;;;2250905;57;21924;-68
2023/12/31 06:48:30;;;;;;;2.58;1.00;;;9.70;68.20;;;;;;2258324;55;21467;-68
2023/12/31 06:50:56;;;;;;;2.00;0.95;;;9.80;68.20;;;;;;2267196;56;21501;-67
2023/12/31 06:53:23;;;;;;;2.20;1.10;;;9.90;68.30;;;;;;2480660;55;21881;-67
2023/12/31 06:55:51;;;;;;;2.08;0.90;;;9.90;68.30;;;;;;2236055;56;21014;-68
2023/12/31 06:58:17;;;;;;;2.45;0.90;;;10.00;67.30;;;;;;2484323;55;21039;-67
2023/12/31 07:00:43;;;;;;;1.40;0.60;;;10.10;67.30;;;;;;2260878;55;21022;-68
2023/12/31 07:03:09;;;;;;;2.10;0.85;;;10.10;67.40;;;;;;2260665;55;21338;-68
2023/12/31 07:05:36;;;;;;;2.17;0.80;;;10.20;67.50;;;;;;2260524;56;21010;-68
2023/12/31 07:08:07;;;;;;;2.17;0.93;;;10.30;67.50;;;;;;2262490;56;21022;-67
2023/12/31 07:10:34;;;;;;;2.22;0.80;;;10.40;67.60;;;;;;2251235;55;21082;-68
2023/12/31 07:13:00;;;;;;;2.15;0.95;;;10.50;67.60;;;;;;2261129;56;20959;-68
2023/12/31 07:15:27;;;;;;;2.03;0.70;;;10.60;67.60;;;;;;2259249;55;20962;-68
2023/12/31 07:17:54;;;;;;;2.20;0.90;;;10.80;67.70;;;;;;2260817;55;21811;-68
2023/12/31 07:20:21;;;;;;;1.85;0.88;;;11.00;68.50;;;;;;2268716;55;21103;-67
2023/12/31 07:22:47;;;;;;;1.90;1.00;;;11.00;67.50;;;;;;2266331;55;21369;-68
2023/12/31 07:25:14;;;;;;;1.98;0.80;;;11.10;67.40;;;;;;2266365;56;21059;-67
2023/12/31 07:27:40;;;;;;;1.65;0.68;;;11.30;67.50;;;;;;2260541;55;21237;-68
2023/12/31 07:30:07;;;;;;;3.15;0.62;;;11.40;67.30;;;;;;2502362;55;21310;-68
2023/12/31 07:32:34;;;;;;;2.40;0.80;;;11.50;67.20;;;;;;2260701;55;20934;-69
2023/12/31 07:35:04;;;;;;;1.80;0.80;;;11.60;67.10;;;;;;2266254;56;20926;-68
2023/12/31 07:37:31;;;;;;;1.87;0.80;;;11.70;67.00;;;;;;2260713;55;20974;-68
2023/12/31 07:39:59;;;;;;;2.45;0.90;;;11.80;66.70;;;;;;2489854;55;21122;-67
2023/12/31 07:42:27;;;;;;;1.77;0.80;;;12.00;66.80;;;;;;2255487;56;20974;-68
2023/12/31 07:44:54;;;;;;;2.20;0.90;;;12.10;66.60;;;;;;2445208;56;21016;-67
2023/12/31 07:47:21;;;;;;;2.85;1.00;;;12.20;66.50;;;;;;2259610;56;21022;-68
2023/12/31 07:49:50;;;;;;;3.50;1.00;;;12.30;66.40;;;;;;2262085;56;21013;-67
2023/12/31 07:52:17;;;;;;;1.95;0.90;;;12.40;65.90;;;;;;2474940;55;20990;-68
2023/12/31 07:54:48;;;;;;;2.75;1.10;;;12.50;66.10;;;;;;2260899;56;21471;-68
2023/12/31 07:57:17;;;;;;;2.55;1.15;;;12.50;65.80;;;;;;2481219;55;20980;-67
2023/12/31 07:59:43;;;;;;;2.15;0.90;;;12.70;65.80;;;;;;2461660;55;20958;-68
2023/12/31 08:02:10;;;;;;;2.95;1.10;;;12.70;65.70;;;;;;2280879;56;21304;-68
2023/12/31 08:04:36;;;;;;;3.05;1.25;;;12.80;65.80;;;;;;2525066;54;20898;-68
2023/12/31 08:07:03;;;;;;;1.90;1.00;;;12.90;65.80;;;;;;2525718;54;20961;-68
2023/12/31 08:09:32;;;;;;;1.87;0.85;;;13.00;65.70;;;;;;2290951;56;20969;-68
2023/12/31 08:12:00;;;;;;;2.70;1.20;;;13.10;65.50;;;;;;2525509;54;20985;-68
2023/12/31 08:14:28;;;;;;;2.42;1.20;;;13.20;65.70;;;;;;2290906;56;20918;-68
2023/12/31 08:16:54;;;;;;;2.60;1.27;;;13.30;65.60;;;;;;2486880;54;21533;-68
2023/12/31 08:19:21;;;;;;;2.53;1.15;;;13.40;65.40;;;;;;2290514;56;20985;-68
2023/12/31 08:21:47;;;;;;;2.53;1.08;;;13.50;65.10;;;;;;2290858;56;21052;-68
2023/12/31 08:24:19;;;;;;;2.97;1.27;;;13.60;65.20;;;;;;2273904;56;20947;-69
2023/12/31 08:26:45;;;;;;;2.65;1.30;;;13.70;65.00;;;;;;2280430;56;20913;-68
2023/12/31 08:29:12;;;;;;;2.60;1.20;;;13.70;64.90;;;;;;2290151;56;21017;-68
2023/12/31 08:31:38;;;;;;;2.03;0.98;;;13.80;64.80;;;;;;2267126;55;20939;-69
2023/12/31 08:34:09;;;;;;;2.58;1.25;;;13.90;64.80;;;;;;2285548;56;20946;-69
2023/12/31 08:36:37;;;;;;;3.17;1.27;;;14.00;64.70;;;;;;2284830;56;20968;-68
2023/12/31 08:39:06;;;;;;;1.77;0.90;;;14.00;64.40;;;;;;2288593;56;20989;-68
2023/12/31 08:41:34;;;;;;;3.22;1.42;;;14.10;64.30;;;;;;2289539;55;20938;-68
2023/12/31 08:44:00;;;;;;;2.92;1.40;;;14.20;63.90;;;;;;2291784;56;20994;-69
2023/12/31 08:46:26;;;;;;;2.55;1.20;;;14.20;63.90;;;;;;2511072;54;20930;-68
2023/12/31 08:48:53;;;;;;;3.50;1.80;;;14.30;63.80;;;;;;2291094;56;21005;-68
2023/12/31 08:51:19;;;;;;;3.80;1.73;;;14.40;63.80;;;;;;2525512;54;20949;-68
2023/12/31 08:53:46;;;;;;;3.85;1.90;;;14.40;63.70;;;;;;2290082;56;20989;-68
2023/12/31 08:56:12;;;;;;;4.07;2.10;;;14.40;63.60;;;;;;2525502;54;20961;-68
2023/12/31 08:58:40;;;;;;;4.78;1.70;;;14.50;63.70;;;;;;2290932;56;21005;-68
2023/12/31 09:01:08;;;;;;;3.33;1.60;;;14.60;63.60;;;;;;2290531;56;21017;-68
2023/12/31 09:03:35;;;;;;;3.90;1.58;;;14.60;63.40;;;;;;2525165;54;20974;-68
2023/12/31 09:06:01;;;;;;;3.53;1.75;;;14.70;63.20;;;;;;2290526;56;20965;-68
2023/12/31 09:08:28;;;;;;;3.15;1.50;;;14.70;63.10;;;;;;2290501;56;20902;-68
2023/12/31 09:10:55;;;;;;;3.17;1.50;;;14.80;63.00;;;;;;2525887;54;21009;-68
2023/12/31 09:13:22;;;;;;;3.70;1.67;;;14.80;63.00;;;;;;2289627;55;20953;-68
2023/12/31 09:15:49;;;;;;;3.40;1.62;;;14.90;62.80;;;;;;2524465;54;20998;-69
2023/12/31 09:18:21;;;;;;;2.55;1.37;;;14.90;62.70;;;;;;2491484;54;20955;-70
2023/12/31 09:20:47;;;;;;;3.90;1.75;;;15.00;62.50;;;;;;2288727;56;20993;-68
2023/12/31 09:23:13;;;;;;;2.75;1.30;;;15.00;62.70;;;;;;2261948;56;21290;-70
2023/12/31 09:25:40;;;;;;;2.78;1.30;;;15.10;62.60;;;;;;2290032;56;20906;-69
2023/12/31 09:28:06;;;;;;;2.62;1.12;;;15.10;62.30;;;;;;2486098;54;21340;-69
2023/12/31 09:30:32;;;;;;;2.42;1.10;;;15.10;62.40;;;;;;2291245;56;21061;-69
2023/12/31 09:33:02;;;;;;;2.67;1.35;;;15.20;62.40;;;;;;2291373;56;20993;-69
2023/12/31 09:35:29;;;;;;;2.60;1.27;;;15.20;62.00;;;;;;2290815;56;20914;-68
2023/12/31 09:37:55;;;;;;;2.55;1.30;;;15.30;62.10;;;;;;2290561;56;20957;-69
2023/12/31 09:40:21;;;;;;;3.67;1.27;;;15.30;62.00;;;;;;2290766;55;20933;-69
2023/12/31 09:42:49;;;;;;;3.25;1.40;;;15.40;62.10;;;;;;2525321;54;21048;-68
2023/12/31 09:45:24;;;;;;;2.62;1.12;;;15.40;61.60;;;;;;2290502;56;20929;-69
2023/12/31 09:47:53;;;;;;;2.53;1.20;;;15.50;60.90;;;;;;2290245;56;20989;-70
2023/12/31 09:50:23;;;;;;;2.92;1.12;;;15.50;61.80;;;;;;2290607;56;20940;-68
2023/12/31 09:52:53;;;;;;;2.42;1.20;;;15.60;61.30;;;;;;2524568;54;20906;-69
2023/12/31 09:55:19;;;;;;;2.55;1.30;;;15.60;61.40;;;;;;2290687;56;21344;-68
2023/12/31 09:57:46;;;;;;;3.30;1.33;;;15.70;61.50;;;;;;2525428;54;20981;-68
2023/12/31 10:00:13;;;;;;;4.25;1.40;;;15.70;61.00;;;;;;2525723;54;20910;-69
2023/12/31 10:02:40;;;;;;;2.95;1.25;;;15.80;61.10;;;;;;2525394;54;20966;-69
2023/12/31 10:05:06;;;;;;;3.22;1.35;;;15.80;61.20;;;;;;2291297;56;21514;-68
2023/12/31 10:07:34;;;;;;;3.10;1.50;;;15.90;61.20;;;;;;2290574;56;20981;-69
2023/12/31 10:10:03;;;;;;;2.53;1.23;;;16.00;61.00;;;;;;2290657;56;20941;-68
2023/12/31 10:12:29;;;;;;;2.40;1.20;;;15.80;60.60;;;;;;2290636;56;20906;-68
2023/12/31 10:14:56;;;;;;;5.12;1.70;;;16.00;61.60;;;;;;2489422;54;20995;-69
2023/12/31 10:17:22;;;;;;;2.70;1.40;;;16.00;60.40;;;;;;2286898;56;20910;-68
2023/12/31 10:19:51;;;;;;;4.10;1.48;;;16.10;60.60;;;;;;2270212;56;21396;-69
2023/12/31 10:22:18;;;;;;;10.00;2.12;;;16.00;60.00;;;;;;2270923;56;21793;-69
2023/12/31 10:24:44;;;;;;;2.97;1.60;;;16.00;59.70;;;;;;2512251;54;21348;-68
2023/12/31 10:27:11;;;;;;;3.83;1.98;;;16.10;59.60;;;;;;2284944;55;20942;-69
2023/12/31 10:29:38;;;;;;;3.47;1.85;;;16.00;60.00;;;;;;2525258;54;21029;-70
2023/12/31 10:32:05;;;;;;;4.70;2.53;;;16.00;60.10;;;;;;2279951;55;20951;-69
2023/12/31 10:34:32;;;;;;;4.30;2.00;;;16.00;60.00;;;;;;2289109;56;21362;-70
2023/12/31 10:37:05;;;;;;;3.90;1.85;;;16.00;59.90;;;;;;2526039;54;21715;-70
2023/12/31 10:39:33;;;;;;;3.22;1.70;;;15.90;59.50;;;;;;2272017;56;21056;-70
2023/12/31 10:42:03;;;;;;;3.28;1.45;;;15.80;59.70;;;;;;2280393;56;22118;-70
2023/12/31 10:44:34;;;;;;;4.70;1.98;;;15.70;59.90;;;;;;2290435;56;21506;-70
2023/12/31 10:47:04;;;;;;;3.17;1.50;;;15.50;59.90;;;;;;2290867;56;20986;-70
2023/12/31 10:49:32;;;;;;;2.47;1.10;;;15.40;60.00;;;;;;2290255;56;21054;-70
2023/12/31 10:52:02;;;;;;;2.60;1.20;;;15.30;60.20;;;;;;2525717;54;21000;-69
2023/12/31 10:54:42;;;;;;;2.42;1.08;;;15.20;60.10;;;;;;2525869;54;20965;-70
2023/12/31 10:57:09;;;;;;;2.22;1.05;;;15.10;60.10;;;;;;2502977;54;21023;-70
2023/12/31 10:59:38;;;;;;;2.70;1.40;;;15.00;60.70;;;;;;2267913;56;21034;-69
2023/12/31 11:02:04;;;;;;;2.62;1.00;;;14.90;60.90;;;;;;2485517;55;21942;-70
2023/12/31 11:04:31;;;;;;;3.15;1.42;;;14.80;60.90;;;;;;2286074;56;20941;-71
2023/12/31 11:06:57;;;;;;;2.90;1.20;;;14.70;61.00;;;;;;2266513;56;20953;-70
2023/12/31 11:09:24;;;;;;;2.78;1.48;;;14.60;61.10;;;;;;2245567;56;21045;-69
2023/12/31 11:11:51;;;;;;;3.50;1.40;;;14.50;61.10;;;;;;2280981;56;21043;-71
2023/12/31 11:14:18;;;;;;;4.07;1.70;;;14.50;61.30;;;;;;2279989;55;21964;-70
2023/12/31 11:17:22;;;;;;;4.90;2.30;;;14.40;61.40;;;;;;2488933;54;20996;-69
2023/12/31 11:21:18;;;;;;;5.12;2.85;;;14.30;61.00;;;;;;2287843;56;21079;-68
2023/12/31 11:24:30;;;;;;;5.82;2.95;;;14.20;61.40;;;;;;2510886;55;21762;-69
2023/12/31 11:27:06;;;;;;;6.05;3.00;;;14.10;61.20;;;;;;2278089;56;21562;-69
2023/12/31 11:29:33;;;;;;;5.18;2.87;;;14.00;61.80;;;;;;2474066;55;21036;-70
2023/12/31 11:31:59;;;;;;;4.55;2.45;;;13.90;62.10;;;;;;2285177;55;21445;-70
2023/12/31 11:34:25;;;;;;;4.30;2.30;;;13.90;62.20;;;;;;2285833;55;20944;-69
2023/12/31 11:36:59;;;;;;;4.95;2.60;;;13.90;62.40;;;;;;2285917;56;20920;-68
2023/12/31 11:39:25;;;;;;;3.65;1.95;;;13.80;62.20;;;;;;2519424;55;21000;-70
2023/12/31 11:41:52;;;;;;;3.40;1.65;;;13.70;62.40;;;;;;2286602;55;20955;-70
2023/12/31 11:44:40;;;;;;;3.62;1.40;;;13.70;62.50;;;;;;2286338;56;21571;-69
2023/12/31 11:47:20;;;;;;;3.20;1.62;;;13.60;62.10;;;;;;2286784;56;21430;-70
2023/12/31 11:49:50;;;;;;;5.22;2.17;;;13.60;62.40;;;;;;2521070;54;20961;-69
2023/12/31 11:52:19;;;;;;;3.75;1.58;;;13.60;62.80;;;;;;2519798;54;21181;-70
2023/12/31 11:54:45;;;;;;;2.40;1.12;;;13.50;62.70;;;;;;2520146;54;20956;-70
2023/12/31 11:57:17;;;;;;;2.10;0.77;;;13.50;62.90;;;;;;2283204;56;20992;-69
2023/12/31 11:59:44;;;;;;;2.22;0.80;;;13.40;62.80;;;;;;2485083;54;21050;-69
2023/12/31 12:02:11;;;;;;;2.40;0.90;;;13.40;62.90;;;;;;2256795;56;21003;-70
2023/12/31 12:04:37;;;;;;;1.65;0.70;;;13.40;63.00;;;;;;2471007;55;20951;-69
2023/12/31 12:07:04;;;;;;;1.70;0.60;;;13.30;62.90;;;;;;2266400;56;21366;-70
2023/12/31 12:09:34;;;;;;;1.52;0.60;;;13.30;63.00;;;;;;2260402;55;20979;-70
2023/12/31 12:12:01;;;;;;;1.67;0.80;;;13.20;62.80;;;;;;2489443;55;21067;-69
2023/12/31 12:14:28;;;;;;;1.45;0.52;;;13.20;62.90;;;;;;2260554;56;21003;-70
2023/12/31 12:16:57;;;;;;;1.65;0.70;;;13.20;62.90;;;;;;2238202;56;20987;-69
2023/12/31 12:19:24;;;;;;;2.42;0.95;;;13.10;62.80;;;;;;2464844;55;21055;-69
2023/12/31 12:21:50;;;;;;;1.55;0.60;;;13.20;62.80;;;;;;2260691;55;21033;-69
2023/12/31 12:24:17;;;;;;;1.37;0.50;;;13.00;62.60;;;;;;2489846;55;20954;-69
2023/12/31 12:26:48;;;;;;;1.25;0.50;;;13.00;62.70;;;;;;2261067;56;20948;-70
2023/12/31 12:29:15;;;;;;;2.55;0.70;;;12.90;62.60;;;;;;2261027;56;20931;-70
2023/12/31 12:31:44;;;;;;;1.52;0.70;;;12.90;62.80;;;;;;2260003;56;21547;-69
2023/12/31 12:34:10;;;;;;;1.75;0.70;;;12.90;62.90;;;;;;2489427;54;20974;-69
2023/12/31 12:36:38;;;;;;;1.40;0.60;;;12.80;63.00;;;;;;2257789;56;20982;-69
2023/12/31 12:39:05;;;;;;;1.37;0.60;;;12.70;62.90;;;;;;2476812;55;21839;-68
2023/12/31 12:41:33;;;;;;;1.10;0.50;;;12.70;63.10;;;;;;2258491;55;21038;-69
2023/12/31 12:44:00;;;;;;;1.65;0.60;;;12.70;63.90;;;;;;2488288;55;20966;-69
2023/12/31 12:46:30;;;;;;;1.05;0.50;;;12.70;63.20;;;;;;2493223;55;20947;-69
2023/12/31 12:48:56;;;;;;;1.27;0.50;;;12.60;63.10;;;;;;2264628;55;20945;-68
2023/12/31 12:51:23;;;;;;;0.88;0.40;;;12.60;63.30;;;;;;2487865;55;21062;-69
2023/12/31 12:53:50;;;;;;;1.27;0.45;;;12.60;63.30;;;;;;2488157;55;20956;-69
2023/12/31 12:56:18;;;;;;;1.87;0.40;;;12.50;63.30;;;;;;2265394;56;20994;-68